Ust'Kamchatsk, Russia
Current Conditions -  °F | °C
As of 3:00 AM on Wednesday 22 Oct 2014 (Local Time) from UHPP Reporting Station
Haze Haze  
Wind Chill: 42°   Ceiling: 600
Heat Index: 45°   Visibility: 2.8mi
Dew Point: 41°   Wind: 4mph
Humidity: 87%   Direction: 320°NW
Pressure: 29.68"   Gusts: NA
Location:  56.23°N, 162.46°E
Report Text: UHPP 211500Z 32002MPS 4500 BR BKN006 OVC016 07/05 Q1005 NOSIGRMK QBB180 QFE750/1001 SC05 055 055
Loading
Personal Weather Stations






























Interactive Weather Map
Tropical Storm Tracking
New forecast layout! Learn more

10-Day Weather Forecast

Advertisements
Track Severe Weather on mobile